Time;durP1;ratioP1;P1;durP2;ratioP2;P2;SDS_P1;SDS_P2;PMS_P1;PMS_P2;Temp;Humidity;BMP_temperature;BMP_pressure;BME280_temperature;BME280_humidity;BME280_pressure;Samples;Min_cycle;Max_cycle;Signal;HPM_P1;HPM_P2
2022/07/29 00:01:22;;;;;;;1.57;1.33;;;17.50;86.00;;;;;;5031829;28;20184;-86
2022/07/29 00:03:48;;;;;;;6.83;1.80;;;17.50;85.90;;;;;;5029536;28;20224;-86
2022/07/29 00:06:14;;;;;;;4.90;2.40;;;17.50;85.90;;;;;;5033143;28;20238;-86
2022/07/29 00:08:40;;;;;;;1.37;1.27;;;17.50;86.10;;;;;;5032277;28;20204;-87
2022/07/29 00:11:05;;;;;;;1.90;1.53;;;17.50;86.10;;;;;;5031358;28;20446;-86
2022/07/29 00:13:31;;;;;;;1.40;1.30;;;17.50;86.20;;;;;;5031287;28;20180;-86
2022/07/29 00:15:57;;;;;;;1.67;1.00;;;17.60;86.30;;;;;;5032253;28;20676;-85
2022/07/29 00:18:22;;;;;;;1.40;1.33;;;17.60;86.60;;;;;;5032104;28;20215;-86
2022/07/29 00:20:48;;;;;;;1.30;1.30;;;17.60;86.30;;;;;;5030092;28;20189;-86
2022/07/29 00:23:13;;;;;;;1.70;1.60;;;17.60;86.30;;;;;;5031261;28;20379;-86
2022/07/29 00:25:39;;;;;;;1.50;1.40;;;17.50;86.30;;;;;;5031396;28;20177;-87
2022/07/29 00:28:04;;;;;;;5.07;2.73;;;17.50;86.30;;;;;;5031118;28;20234;-86
2022/07/29 00:30:30;;;;;;;1.17;1.07;;;17.50;86.70;;;;;;5031256;28;20690;-86
2022/07/29 00:32:56;;;;;;;1.20;1.10;;;17.50;86.80;;;;;;5030625;28;20220;-85
2022/07/29 00:38:05;;;;;;;1.20;1.03;;;17.50;86.50;;;;;;5032638;28;20727;-87
2022/07/29 00:40:31;;;;;;;2.00;1.77;;;17.40;86.50;;;;;;5031872;28;20446;-86
2022/07/29 00:45:25;;;;;;;1.73;1.63;;;17.40;86.60;;;;;;5048986;28;20242;-83
2022/07/29 00:47:50;;;;;;;11.83;1.67;;;17.30;86.80;;;;;;5049935;28;20624;-83
2022/07/29 00:50:16;;;;;;;1.37;1.27;;;17.30;86.80;;;;;;5049939;28;20294;-83
2022/07/29 00:52:42;;;;;;;5.63;2.27;;;17.30;86.90;;;;;;5058070;28;20178;-84
2022/07/29 00:55:14;;;;;;;1.53;1.43;;;17.30;87.00;;;;;;5056033;28;20410;-84
2022/07/29 00:57:42;;;;;;;1.17;1.10;;;17.20;87.00;;;;;;5049921;28;20175;-83
2022/07/29 01:00:14;;;;;;;2.80;1.70;;;17.20;87.10;;;;;;5049474;28;20422;-86
2022/07/29 01:02:40;;;;;;;3.00;1.50;;;17.20;87.20;;;;;;5062797;28;20438;-86
2022/07/29 01:05:07;;;;;;;1.60;1.50;;;17.20;87.20;;;;;;5049713;28;20426;-85
2022/07/29 01:07:34;;;;;;;1.80;1.70;;;17.10;87.40;;;;;;5049337;28;20175;-85
2022/07/29 01:10:02;;;;;;;15.27;2.80;;;17.10;87.30;;;;;;5049202;28;20462;-86
2022/07/29 01:12:31;;;;;;;1.40;1.30;;;17.10;87.40;;;;;;5055754;28;20553;-86
2022/07/29 01:14:58;;;;;;;1.50;1.40;;;17.10;87.50;;;;;;5064864;28;20432;-86
2022/07/29 01:17:36;;;;;;;1.10;1.00;;;17.10;87.70;;;;;;5058299;28;20414;-86
2022/07/29 01:20:13;;;;;;;1.57;1.53;;;17.10;87.70;;;;;;5054253;28;20425;-85
2022/07/29 01:22:54;;;;;;;2.17;1.70;;;17.10;87.80;;;;;;5051254;28;20591;-85
2022/07/29 01:25:58;;;;;;;1.73;1.63;;;17.10;87.90;;;;;;5065852;28;20442;-85
2022/07/29 01:29:03;;;;;;;1.60;1.50;;;17.10;87.70;;;;;;5018080;28;20457;-86
2022/07/29 01:31:45;;;;;;;2.10;1.23;;;17.10;87.90;;;;;;5007109;28;20440;-86
2022/07/29 01:34:17;;;;;;;3.23;1.50;;;17.10;87.90;;;;;;5050271;28;20795;-85
2022/07/29 01:36:57;;;;;;;1.27;1.17;;;17.10;88.10;;;;;;5049265;28;20497;-85
2022/07/29 01:39:31;;;;;;;1.40;1.30;;;17.00;88.10;;;;;;5049053;28;20438;-86
2022/07/29 01:42:29;;;;;;;1.63;1.30;;;17.00;88.10;;;;;;5048810;28;20402;-85
2022/07/29 01:45:19;;;;;;;1.63;1.63;;;17.00;88.30;;;;;;5034970;28;20806;-86
2022/07/29 01:48:02;;;;;;;1.27;1.20;;;17.00;88.30;;;;;;5056029;28;20414;-86
2022/07/29 01:50:46;;;;;;;1.30;1.20;;;17.00;88.50;;;;;;5049225;28;20793;-86
2022/07/29 01:53:14;;;;;;;1.70;1.60;;;17.00;88.40;;;;;;5054350;28;20830;-85
2022/07/29 01:55:44;;;;;;;2.00;1.90;;;17.00;88.50;;;;;;5056282;28;20406;-85
2022/07/29 01:58:12;;;;;;;4.33;2.00;;;17.00;88.80;;;;;;5048832;28;20906;-86
2022/07/29 02:00:39;;;;;;;1.80;1.70;;;17.00;88.60;;;;;;5050328;28;20413;-86
2022/07/29 02:03:09;;;;;;;1.43;1.33;;;17.00;88.50;;;;;;5048981;28;20839;-86
2022/07/29 02:05:37;;;;;;;1.80;1.70;;;17.00;88.50;;;;;;5048537;28;20497;-86
2022/07/29 02:08:04;;;;;;;5.13;1.93;;;16.90;88.70;;;;;;5049132;28;20438;-85
2022/07/29 02:10:33;;;;;;;1.30;1.20;;;16.90;88.60;;;;;;5048663;28;20942;-86
2022/07/29 02:12:59;;;;;;;1.83;1.60;;;16.90;88.80;;;;;;5048938;28;20501;-86
2022/07/29 02:15:28;;;;;;;5.33;2.27;;;16.90;89.00;;;;;;5048616;28;20407;-86
2022/07/29 02:17:58;;;;;;;1.40;1.30;;;16.90;89.00;;;;;;5048864;28;20475;-85
2022/07/29 02:20:26;;;;;;;1.53;1.43;;;16.90;89.40;;;;;;5061202;28;20995;-86
2022/07/29 02:22:53;;;;;;;1.30;1.20;;;16.90;89.20;;;;;;5048953;28;20426;-85
2022/07/29 02:25:21;;;;;;;1.37;1.27;;;16.90;89.30;;;;;;5048603;28;20446;-86
2022/07/29 02:27:50;;;;;;;2.70;2.27;;;16.90;89.30;;;;;;5065525;28;20434;-86
2022/07/29 02:30:16;;;;;;;1.40;1.30;;;16.90;89.20;;;;;;5048930;28;20461;-86
2022/07/29 02:32:45;;;;;;;1.57;1.47;;;16.90;89.20;;;;;;5049060;28;20662;-86
2022/07/29 02:35:13;;;;;;;1.27;1.23;;;16.90;89.20;;;;;;5048760;28;20450;-86
2022/07/29 02:37:40;;;;;;;1.10;1.00;;;16.90;89.00;;;;;;5048412;28;20423;-85
2022/07/29 02:40:10;;;;;;;1.87;1.80;;;16.90;88.70;;;;;;5048210;28;20911;-85
2022/07/29 02:42:37;;;;;;;1.43;1.27;;;16.90;89.00;;;;;;5048254;28;20616;-85
2022/07/29 02:45:05;;;;;;;3.13;1.93;;;16.80;89.00;;;;;;5048322;28;20928;-85
2022/07/29 02:47:39;;;;;;;1.37;1.27;;;16.80;89.20;;;;;;5048289;28;20426;-85
2022/07/29 02:50:19;;;;;;;2.13;1.83;;;16.80;89.00;;;;;;5047688;28;20465;-85
2022/07/29 02:52:53;;;;;;;1.37;1.27;;;16.80;89.10;;;;;;5048038;28;20430;-85
2022/07/29 02:55:25;;;;;;;2.43;1.70;;;16.80;89.10;;;;;;5048931;28;21082;-85
2022/07/29 02:58:02;;;;;;;1.20;1.10;;;16.80;89.30;;;;;;5051911;28;20720;-85
2022/07/29 03:00:30;;;;;;;2.40;1.50;;;16.80;89.30;;;;;;5052429;28;20413;-85
2022/07/29 03:03:00;;;;;;;2.00;1.73;;;16.80;89.30;;;;;;5051716;28;20471;-85
2022/07/29 03:05:27;;;;;;;2.23;1.30;;;16.80;89.30;;;;;;5052043;28;20423;-85
2022/07/29 03:07:59;;;;;;;1.63;1.53;;;16.80;89.30;;;;;;5051774;28;20421;-85
2022/07/29 03:10:28;;;;;;;1.30;1.23;;;16.80;89.40;;;;;;5050521;28;20954;-85
2022/07/29 03:12:55;;;;;;;1.30;1.20;;;16.80;89.20;;;;;;5063761;28;20414;-86
2022/07/29 03:15:21;;;;;;;1.57;1.30;;;16.80;89.40;;;;;;5035657;28;20465;-85
2022/07/29 03:17:47;;;;;;;1.60;1.50;;;16.80;89.50;;;;;;5051673;28;20406;-85
2022/07/29 03:20:13;;;;;;;2.63;2.27;;;16.80;89.40;;;;;;5063622;28;20424;-85
2022/07/29 03:22:43;;;;;;;1.60;1.20;;;16.80;89.40;;;;;;5051004;28;20187;-85
2022/07/29 03:25:14;;;;;;;6.80;1.40;;;16.70;89.40;;;;;;5051279;28;20503;-85
2022/07/29 03:27:40;;;;;;;1.07;1.07;;;16.70;89.30;;;;;;5051294;28;20421;-85
2022/07/29 03:30:07;;;;;;;2.27;2.07;;;16.70;89.50;;;;;;5051320;28;20457;-85
2022/07/29 03:32:33;;;;;;;1.60;1.50;;;16.70;89.40;;;;;;5052518;28;20472;-85
2022/07/29 03:34:59;;;;;;;1.30;1.23;;;16.70;89.40;;;;;;5051151;28;20611;-85
2022/07/29 03:37:25;;;;;;;4.70;1.63;;;16.70;89.30;;;;;;5051074;28;20419;-85
2022/07/29 03:39:52;;;;;;;2.00;1.90;;;16.70;89.30;;;;;;5050566;28;20228;-85
2022/07/29 03:42:20;;;;;;;2.70;1.10;;;16.70;89.30;;;;;;5051017;28;20183;-85
2022/07/29 03:44:49;;;;;;;1.17;1.07;;;16.70;89.20;;;;;;5050632;28;20453;-85
2022/07/29 03:47:18;;;;;;;1.70;1.60;;;16.70;89.20;;;;;;5052371;28;20425;-85
2022/07/29 03:49:48;;;;;;;2.07;1.93;;;16.60;89.30;;;;;;5050791;28;20982;-85
2022/07/29 03:52:13;;;;;;;1.53;1.43;;;16.60;89.20;;;;;;5050990;28;20411;-86
2022/07/29 03:54:39;;;;;;;1.73;1.63;;;16.60;89.20;;;;;;5050916;28;20789;-85
2022/07/29 03:57:06;;;;;;;2.50;1.90;;;16.60;89.30;;;;;;5040005;28;20184;-85
2022/07/29 03:59:36;;;;;;;1.80;1.70;;;16.50;89.20;;;;;;5048224;28;20813;-85
2022/07/29 04:02:03;;;;;;;1.77;1.70;;;16.50;89.40;;;;;;5050546;28;20433;-85
2022/07/29 04:04:33;;;;;;;1.70;1.27;;;16.50;89.30;;;;;;5048770;28;20418;-85
2022/07/29 04:06:58;;;;;;;1.53;1.47;;;16.50;89.30;;;;;;5063211;28;20407;-85
2022/07/29 04:09:25;;;;;;;1.50;1.40;;;16.50;89.50;;;;;;5050224;28;20839;-85
2022/07/29 04:11:51;;;;;;;2.40;1.27;;;16.50;89.40;;;;;;5041660;28;20176;-85
2022/07/29 04:14:17;;;;;;;3.77;1.67;;;16.60;89.50;;;;;;5047572;28;20417;-85
2022/07/29 04:16:42;;;;;;;1.20;1.10;;;16.60;89.40;;;;;;5049883;28;20431;-85
2022/07/29 04:19:08;;;;;;;4.87;2.90;;;16.60;89.20;;;;;;5045074;28;20544;-85
2022/07/29 04:21:38;;;;;;;1.80;1.70;;;16.60;89.30;;;;;;5041405;28;20180;-85
2022/07/29 04:24:03;;;;;;;1.90;1.20;;;16.60;89.30;;;;;;5047428;28;20654;-85
2022/07/29 04:26:29;;;;;;;5.83;1.90;;;16.60;89.20;;;;;;5046479;28;20426;-85
2022/07/29 04:28:55;;;;;;;1.90;1.80;;;16.60;89.30;;;;;;5049914;28;20235;-85
2022/07/29 04:31:20;;;;;;;2.20;1.90;;;16.60;89.50;;;;;;5048478;28;20184;-85
2022/07/29 04:33:46;;;;;;;2.00;1.90;;;16.60;89.80;;;;;;5042466;28;20168;-85
2022/07/29 04:36:12;;;;;;;2.30;1.40;;;16.60;89.90;;;;;;5035391;28;20414;-86
2022/07/29 04:38:38;;;;;;;1.10;1.10;;;16.60;89.70;;;;;;5040257;28;20347;-86
2022/07/29 04:41:03;;;;;;;7.13;1.60;;;16.60;89.50;;;;;;5046677;28;20191;-86
2022/07/29 04:43:29;;;;;;;3.43;1.77;;;16.60;89.60;;;;;;5045392;28;20414;-85
2022/07/29 04:45:54;;;;;;;1.50;1.40;;;16.60;89.60;;;;;;5049646;28;20249;-85
2022/07/29 04:48:20;;;;;;;1.80;1.77;;;16.60;90.00;;;;;;5042333;28;20649;-85
2022/07/29 04:50:45;;;;;;;1.57;1.03;;;16.60;89.80;;;;;;5038669;28;20208;-85
2022/07/29 04:53:11;;;;;;;1.50;1.40;;;16.60;89.60;;;;;;5047391;28;20175;-85
2022/07/29 04:55:37;;;;;;;1.20;1.10;;;16.60;89.70;;;;;;5042395;28;20183;-85
2022/07/29 04:58:02;;;;;;;3.80;2.70;;;16.60;89.60;;;;;;5046322;28;20291;-85
2022/07/29 05:00:28;;;;;;;1.40;1.30;;;16.60;89.70;;;;;;5049480;28;20679;-85
2022/07/29 05:02:53;;;;;;;4.30;2.67;;;16.60;89.80;;;;;;5049991;28;20714;-85
2022/07/29 05:05:19;;;;;;;3.43;2.03;;;16.60;89.80;;;;;;5049439;28;20175;-85
2022/07/29 05:07:44;;;;;;;2.20;2.00;;;16.60;90.00;;;;;;5063051;28;20175;-85
2022/07/29 05:10:11;;;;;;;1.77;1.63;;;16.60;89.90;;;;;;5050210;28;20249;-85
2022/07/29 05:12:37;;;;;;;1.50;1.47;;;16.60;89.90;;;;;;5049648;28;20183;-85
2022/07/29 05:15:02;;;;;;;2.10;1.67;;;16.70;90.10;;;;;;5049629;28;20437;-85
2022/07/29 05:17:28;;;;;;;2.80;1.57;;;16.70;89.70;;;;;;5049375;28;20176;-85
2022/07/29 05:19:54;;;;;;;1.70;1.60;;;16.70;90.00;;;;;;5058872;28;20673;-84
2022/07/29 05:22:20;;;;;;;1.87;1.77;;;16.70;90.10;;;;;;5051757;28;20196;-85
2022/07/29 05:24:46;;;;;;;5.20;2.67;;;16.70;90.30;;;;;;5049251;28;20701;-85
2022/07/29 05:27:12;;;;;;;1.57;1.47;;;16.80;90.40;;;;;;5049221;28;20501;-85
2022/07/29 05:29:37;;;;;;;1.73;1.67;;;16.80;90.40;;;;;;5049431;28;20211;-85
2022/07/29 05:32:04;;;;;;;1.33;1.23;;;16.80;90.40;;;;;;5049470;28;20204;-85
2022/07/29 05:34:30;;;;;;;1.60;1.50;;;16.90;90.40;;;;;;5049218;28;20183;-85
2022/07/29 05:36:56;;;;;;;1.57;1.50;;;17.00;90.80;;;;;;5049963;28;20510;-85
2022/07/29 05:39:22;;;;;;;4.43;1.97;;;17.00;90.80;;;;;;5048921;28;20526;-85
2022/07/29 05:41:48;;;;;;;1.17;1.07;;;17.00;91.60;;;;;;5050729;28;20176;-84
2022/07/29 05:44:14;;;;;;;1.70;1.50;;;17.10;90.50;;;;;;5049354;28;20535;-85
2022/07/29 05:46:40;;;;;;;2.23;1.40;;;17.10;90.50;;;;;;5049534;28;20198;-85
2022/07/29 05:49:06;;;;;;;1.20;1.10;;;17.20;90.60;;;;;;5049363;28;20265;-85
2022/07/29 05:51:32;;;;;;;1.73;1.63;;;17.20;90.80;;;;;;5049755;28;20472;-85
2022/07/29 05:53:58;;;;;;;4.50;2.37;;;17.30;90.80;;;;;;5049751;28;20433;-85
2022/07/29 05:56:24;;;;;;;1.57;1.30;;;17.30;91.00;;;;;;5049587;28;20410;-85
2022/07/29 05:58:50;;;;;;;2.23;1.60;;;17.40;90.80;;;;;;5050190;28;20791;-85
2022/07/29 06:01:16;;;;;;;2.30;1.87;;;17.40;90.80;;;;;;5049771;28;20438;-85
2022/07/29 06:03:41;;;;;;;2.30;1.13;;;17.50;90.70;;;;;;5049507;28;20644;-86
2022/07/29 06:06:07;;;;;;;1.70;1.60;;;17.50;90.90;;;;;;5049126;28;20179;-85
2022/07/29 06:08:33;;;;;;;1.70;1.60;;;17.60;90.90;;;;;;5048831;28;20231;-85
2022/07/29 06:11:00;;;;;;;1.60;1.50;;;17.60;91.00;;;;;;5049040;28;20504;-85
2022/07/29 06:13:26;;;;;;;1.67;1.47;;;17.70;90.70;;;;;;5049509;28;20185;-85
2022/07/29 06:15:51;;;;;;;4.30;1.60;;;17.70;89.80;;;;;;5050576;28;21018;-86
2022/07/29 06:18:17;;;;;;;1.83;1.73;;;17.70;89.90;;;;;;5048469;28;20595;-86
2022/07/29 06:20:42;;;;;;;1.93;1.80;;;17.70;89.60;;;;;;5049847;28;20176;-83
2022/07/29 06:23:09;;;;;;;1.47;1.37;;;17.80;89.20;;;;;;5048554;28;20176;-83
2022/07/29 06:25:36;;;;;;;2.40;1.90;;;17.80;89.00;;;;;;5048723;28;20180;-86
2022/07/29 06:28:02;;;;;;;2.80;2.10;;;17.80;88.80;;;;;;5049437;28;20442;-84
2022/07/29 06:30:28;;;;;;;1.60;1.40;;;17.90;89.10;;;;;;5048711;28;20539;-84
2022/07/29 06:32:54;;;;;;;1.23;1.13;;;17.90;89.90;;;;;;5052502;28;20497;-83
2022/07/29 06:35:20;;;;;;;1.33;1.23;;;17.90;88.90;;;;;;5052940;28;20878;-84
2022/07/29 06:37:45;;;;;;;2.33;2.07;;;18.00;89.00;;;;;;5052846;28;20771;-84
2022/07/29 06:42:55;;;;;;;1.80;1.70;;;18.00;89.30;;;;;;5054820;28;20241;-86
2022/07/29 06:45:21;;;;;;;2.40;2.20;;;18.10;89.60;;;;;;5053797;28;20462;-84
2022/07/29 06:47:48;;;;;;;3.03;1.67;;;18.10;90.30;;;;;;5067256;22;20163;-87
2022/07/29 06:50:14;;;;;;;5.77;2.13;;;18.20;90.50;;;;;;5051433;28;20203;-87
2022/07/29 06:52:40;;;;;;;10.00;1.63;;;18.20;90.10;;;;;;5053125;28;20414;-87
2022/07/29 06:55:07;;;;;;;4.73;2.20;;;18.20;90.10;;;;;;5052786;28;20480;-87
2022/07/29 06:57:32;;;;;;;3.47;1.70;;;18.30;88.90;;;;;;5052508;28;20187;-85
2022/07/29 06:59:58;;;;;;;1.37;1.27;;;18.30;88.50;;;;;;5052973;28;20437;-87
2022/07/29 07:02:23;;;;;;;2.70;1.57;;;18.30;88.70;;;;;;5053099;28;20176;-87
2022/07/29 07:04:49;;;;;;;2.83;2.70;;;18.40;89.10;;;;;;5052136;28;20194;-87
2022/07/29 07:07:15;;;;;;;1.70;1.60;;;18.40;88.40;;;;;;5052838;28;20187;-87
2022/07/29 07:09:40;;;;;;;2.50;2.30;;;18.40;88.80;;;;;;5052702;28;20323;-87
2022/07/29 07:12:06;;;;;;;4.10;1.87;;;18.50;88.30;;;;;;5052647;28;20190;-86
2022/07/29 07:14:32;;;;;;;2.13;1.40;;;18.50;88.90;;;;;;5052875;28;20540;-87
2022/07/29 07:17:00;;;;;;;6.60;2.20;;;18.70;89.30;;;;;;5052249;28;20423;-86
2022/07/29 07:19:26;;;;;;;2.40;2.20;;;18.80;88.70;;;;;;5052085;28;20590;-87
2022/07/29 07:21:53;;;;;;;1.70;1.60;;;18.90;88.50;;;;;;5051955;28;20915;-86
2022/07/29 07:24:18;;;;;;;3.23;2.27;;;19.00;87.30;;;;;;5052068;28;20919;-86
2022/07/29 07:26:44;;;;;;;1.37;1.27;;;19.00;86.90;;;;;;5053458;28;20483;-86
2022/07/29 07:29:10;;;;;;;1.57;1.47;;;19.10;86.70;;;;;;5051763;28;20199;-86
2022/07/29 07:31:37;;;;;;;1.50;1.40;;;19.10;86.50;;;;;;5052206;28;20184;-87
2022/07/29 07:34:02;;;;;;;1.90;1.80;;;19.20;85.80;;;;;;5052271;28;20418;-87
2022/07/29 07:36:28;;;;;;;2.30;2.10;;;19.30;86.10;;;;;;5052415;28;20445;-87
2022/07/29 07:38:53;;;;;;;1.90;1.80;;;19.30;86.10;;;;;;5052128;28;20206;-86
2022/07/29 07:41:19;;;;;;;5.70;3.03;;;19.40;85.30;;;;;;5052197;28;20176;-87
2022/07/29 07:43:45;;;;;;;2.50;1.90;;;19.40;85.30;;;;;;5051657;28;20224;-87
2022/07/29 07:46:10;;;;;;;2.30;1.80;;;19.40;85.40;;;;;;5053398;28;20180;-87
2022/07/29 07:48:36;;;;;;;1.43;1.33;;;19.40;85.40;;;;;;5051922;28;20292;-86
2022/07/29 07:51:02;;;;;;;4.23;2.80;;;19.50;84.90;;;;;;5051937;28;20246;-87
2022/07/29 07:53:29;;;;;;;1.87;1.77;;;19.70;85.50;;;;;;5051929;28;20201;-86
2022/07/29 07:55:55;;;;;;;2.40;2.20;;;19.80;85.20;;;;;;5052172;28;20437;-86
2022/07/29 07:58:20;;;;;;;2.53;2.37;;;20.00;84.30;;;;;;5051358;28;20437;-86
2022/07/29 08:00:46;;;;;;;2.70;2.00;;;20.10;84.10;;;;;;5051232;28;20206;-86
2022/07/29 08:03:13;;;;;;;4.17;2.70;;;20.20;83.70;;;;;;5051364;28;20172;-86
2022/07/29 08:05:39;;;;;;;7.03;2.13;;;20.30;83.80;;;;;;5051345;28;20724;-87
2022/07/29 08:08:06;;;;;;;2.97;2.10;;;20.40;82.90;;;;;;5051311;28;20434;-86
2022/07/29 08:13:16;;;;;;;1.90;1.80;;;20.70;83.70;;;;;;5052971;28;20476;-85
2022/07/29 08:15:42;;;;;;;4.90;2.10;;;20.90;83.30;;;;;;5050906;28;20410;-86
2022/07/29 08:18:08;;;;;;;2.93;1.83;;;21.00;83.40;;;;;;5050928;28;20202;-86
2022/07/29 08:20:35;;;;;;;2.00;1.93;;;21.20;83.30;;;;;;5050924;28;20418;-87
2022/07/29 08:23:01;;;;;;;7.70;2.23;;;21.40;83.00;;;;;;5051505;28;20237;-87
2022/07/29 08:25:27;;;;;;;1.40;1.30;;;21.50;82.80;;;;;;5051244;28;20422;-87
2022/07/29 08:27:53;;;;;;;3.93;2.13;;;21.70;82.80;;;;;;5040024;28;20935;-86
2022/07/29 08:30:19;;;;;;;4.70;2.07;;;21.80;81.70;;;;;;5050972;28;20470;-86
2022/07/29 08:32:44;;;;;;;1.73;1.57;;;22.00;81.20;;;;;;5050372;28;20263;-86
2022/07/29 08:35:10;;;;;;;2.73;1.70;;;22.20;81.90;;;;;;5050249;28;20180;-86
2022/07/29 08:37:35;;;;;;;2.33;2.13;;;22.30;82.30;;;;;;5051414;28;20186;-86
2022/07/29 08:40:01;;;;;;;1.77;1.73;;;22.50;81.90;;;;;;5050566;28;20613;-86
2022/07/29 08:42:27;;;;;;;2.40;2.20;;;22.70;81.30;;;;;;5050929;28;20254;-86
2022/07/29 08:44:54;;;;;;;4.73;2.87;;;22.80;80.50;;;;;;5050626;28;20184;-86
2022/07/29 08:47:20;;;;;;;2.80;2.10;;;22.90;79.00;;;;;;5050917;28;20188;-85
2022/07/29 08:49:46;;;;;;;4.70;3.63;;;23.00;78.10;;;;;;5049863;28;20505;-87
2022/07/29 08:52:14;;;;;;;5.17;2.70;;;23.10;78.10;;;;;;5050549;28;20184;-85
2022/07/29 08:54:43;;;;;;;2.40;2.20;;;23.20;78.30;;;;;;5049877;28;20431;-86
2022/07/29 08:57:12;;;;;;;1.77;1.60;;;23.30;78.30;;;;;;5050193;28;20465;-86
2022/07/29 08:59:40;;;;;;;2.80;2.60;;;23.50;78.60;;;;;;5050146;28;20453;-86
2022/07/29 09:02:15;;;;;;;2.37;2.17;;;23.60;77.90;;;;;;5050393;28;20422;-85
2022/07/29 09:04:41;;;;;;;2.20;2.00;;;23.80;77.50;;;;;;5050353;28;20422;-86
2022/07/29 09:07:08;;;;;;;3.03;2.40;;;23.90;77.80;;;;;;5051246;28;20440;-86
2022/07/29 09:09:34;;;;;;;3.80;2.30;;;24.10;77.00;;;;;;5049873;28;20199;-87
2022/07/29 09:12:00;;;;;;;1.83;1.73;;;24.20;77.20;;;;;;5050199;28;20418;-86
2022/07/29 09:14:25;;;;;;;2.20;2.00;;;24.30;77.40;;;;;;5050042;28;20218;-86
2022/07/29 09:16:55;;;;;;;2.63;2.43;;;24.50;77.20;;;;;;5050040;28;20419;-86
2022/07/29 09:19:24;;;;;;;2.03;1.90;;;24.60;77.10;;;;;;5050403;28;20199;-86
2022/07/29 09:21:58;;;;;;;4.50;2.27;;;24.80;77.00;;;;;;5050490;28;21090;-85
2022/07/29 09:24:43;;;;;;;2.93;2.50;;;24.90;76.70;;;;;;5051444;28;20428;-86
2022/07/29 09:27:12;;;;;;;3.70;2.77;;;25.00;75.70;;;;;;5050107;28;20426;-85
2022/07/29 09:29:38;;;;;;;3.60;1.60;;;25.00;75.40;;;;;;5048715;28;20457;-85
2022/07/29 09:32:09;;;;;;;3.67;2.17;;;25.10;75.40;;;;;;5050217;28;20414;-87
2022/07/29 09:34:34;;;;;;;2.93;2.10;;;25.10;75.20;;;;;;5049849;28;20630;-86
2022/07/29 09:37:00;;;;;;;5.70;2.40;;;25.10;74.80;;;;;;5049654;28;20414;-86
2022/07/29 09:39:34;;;;;;;2.60;1.77;;;25.20;75.50;;;;;;5049558;28;20204;-86
2022/07/29 09:42:03;;;;;;;11.33;3.27;;;25.30;74.90;;;;;;5064333;28;20252;-85
2022/07/29 09:44:50;;;;;;;3.40;1.23;;;25.40;75.20;;;;;;5049804;28;20931;-85
2022/07/29 09:47:18;;;;;;;1.50;1.40;;;25.40;74.20;;;;;;5049138;28;20426;-86
2022/07/29 09:50:00;;;;;;;1.90;1.73;;;25.40;73.80;;;;;;5049210;28;20482;-85
2022/07/29 09:52:27;;;;;;;2.80;1.97;;;25.40;73.10;;;;;;5049731;28;20423;-85
2022/07/29 09:54:55;;;;;;;2.63;2.13;;;25.50;73.30;;;;;;5049641;28;20418;-84
2022/07/29 09:57:26;;;;;;;1.93;1.80;;;25.50;73.60;;;;;;5049436;28;20418;-85
2022/07/29 10:00:01;;;;;;;5.17;2.40;;;25.60;73.30;;;;;;5050831;28;20442;-86
2022/07/29 10:02:31;;;;;;;1.90;1.80;;;25.80;74.00;;;;;;5049732;28;20421;-84
2022/07/29 10:04:58;;;;;;;2.07;1.97;;;25.90;73.00;;;;;;5050453;28;20434;-85
2022/07/29 10:07:24;;;;;;;3.20;1.70;;;25.90;72.10;;;;;;5053741;28;20440;-85
2022/07/29 10:09:57;;;;;;;2.93;2.30;;;25.90;72.00;;;;;;5062336;28;20461;-85
2022/07/29 10:12:23;;;;;;;2.47;2.07;;;25.90;72.30;;;;;;5059002;28;20488;-86
2022/07/29 10:14:50;;;;;;;2.47;1.50;;;25.90;72.10;;;;;;5054047;28;21000;-84
2022/07/29 10:17:18;;;;;;;3.10;1.93;;;26.00;72.40;;;;;;5053502;28;20433;-85
2022/07/29 10:19:44;;;;;;;3.53;2.53;;;26.10;72.20;;;;;;5053506;28;20462;-85
2022/07/29 10:22:10;;;;;;;6.10;2.30;;;26.20;72.10;;;;;;5053743;28;20422;-85
2022/07/29 10:24:38;;;;;;;16.73;3.13;;;26.40;71.70;;;;;;5053482;28;20484;-86
2022/07/29 10:27:05;;;;;;;16.37;1.67;;;26.50;72.50;;;;;;5053474;28;20471;-85
2022/07/29 10:29:31;;;;;;;6.20;2.63;;;26.60;71.70;;;;;;5053331;28;21022;-86
2022/07/29 10:32:29;;;;;;;6.57;2.80;;;26.70;71.10;;;;;;5053326;28;20488;-84
2022/07/29 10:35:09;;;;;;;6.23;1.90;;;26.90;70.40;;;;;;5055088;28;20434;-85
2022/07/29 10:37:52;;;;;;;2.90;1.83;;;26.90;70.80;;;;;;5063128;28;20422;-85
2022/07/29 10:43:35;;;;;;;9.60;2.80;;;27.10;69.80;;;;;;5054857;28;20492;-85
2022/07/29 10:46:02;;;;;;;2.77;2.30;;;27.10;70.50;;;;;;5052567;28;20417;-86
2022/07/29 10:48:28;;;;;;;1.50;1.40;;;27.10;71.60;;;;;;5053854;28;20516;-86
2022/07/29 10:50:58;;;;;;;3.33;2.33;;;27.30;70.50;;;;;;5053238;28;20425;-87
2022/07/29 10:53:24;;;;;;;2.13;1.50;;;27.40;69.20;;;;;;5053306;28;20599;-87
2022/07/29 10:55:52;;;;;;;2.00;1.90;;;27.60;69.80;;;;;;5053945;28;20414;-86
2022/07/29 10:58:18;;;;;;;3.37;3.07;;;27.70;69.20;;;;;;5053114;28;20525;-85
2022/07/29 11:00:48;;;;;;;1.73;1.70;;;27.80;68.60;;;;;;5053196;28;20410;-87
2022/07/29 11:03:40;;;;;;;3.93;2.37;;;27.90;68.90;;;;;;5053544;28;20617;-86
2022/07/29 11:06:06;;;;;;;2.47;2.10;;;28.00;68.40;;;;;;5048383;28;20460;-86
2022/07/29 11:08:31;;;;;;;4.23;2.80;;;28.10;68.10;;;;;;5052611;28;20850;-87
2022/07/29 11:11:19;;;;;;;3.00;1.53;;;28.10;68.30;;;;;;5053036;28;20189;-86
2022/07/29 11:13:46;;;;;;;1.40;1.30;;;28.10;67.60;;;;;;5052852;28;20176;-86
2022/07/29 11:16:12;;;;;;;4.10;2.03;;;28.10;68.40;;;;;;5052386;28;20423;-85
2022/07/29 11:19:12;;;;;;;4.43;2.03;;;28.20;67.60;;;;;;5052192;28;20951;-85
2022/07/29 11:21:41;;;;;;;5.87;2.87;;;28.30;68.50;;;;;;5052552;28;20403;-86
2022/07/29 11:24:13;;;;;;;5.77;2.20;;;28.40;67.70;;;;;;5052688;28;20457;-85
2022/07/29 11:26:39;;;;;;;2.37;2.17;;;28.60;67.20;;;;;;5052177;28;20414;-87
2022/07/29 11:29:20;;;;;;;4.07;2.60;;;28.70;67.40;;;;;;5065368;28;20839;-86
2022/07/29 11:31:54;;;;;;;3.93;2.40;;;28.80;66.60;;;;;;5052049;28;20187;-86
2022/07/29 11:34:30;;;;;;;4.80;3.03;;;28.80;66.10;;;;;;5052366;28;20426;-86
2022/07/29 11:37:11;;;;;;;9.73;3.27;;;28.90;67.00;;;;;;5051970;28;20943;-86
2022/07/29 11:39:37;;;;;;;3.60;1.97;;;29.00;67.90;;;;;;5064740;28;20803;-86
2022/07/29 11:42:22;;;;;;;3.73;2.17;;;29.10;67.70;;;;;;5053415;28;20558;-87
2022/07/29 11:44:58;;;;;;;2.13;1.27;;;29.20;67.10;;;;;;5053355;28;20421;-87
2022/07/29 11:47:24;;;;;;;1.70;1.37;;;29.30;66.50;;;;;;5052227;28;20471;-86
2022/07/29 11:49:51;;;;;;;2.93;2.33;;;29.40;67.20;;;;;;5052210;28;20490;-87
2022/07/29 11:52:19;;;;;;;2.57;2.27;;;29.50;66.10;;;;;;5051976;28;20774;-87
2022/07/29 11:54:47;;;;;;;3.00;2.43;;;29.60;66.30;;;;;;5052152;28;20418;-85
2022/07/29 11:57:15;;;;;;;3.47;2.03;;;29.80;65.70;;;;;;5052663;28;20935;-87
2022/07/29 11:59:42;;;;;;;2.67;2.23;;;29.80;65.20;;;;;;5051291;28;20440;-87
2022/07/29 12:02:08;;;;;;;3.17;2.33;;;29.80;66.30;;;;;;5047046;28;20419;-87
2022/07/29 12:04:48;;;;;;;5.53;2.00;;;30.00;66.30;;;;;;5051889;28;20572;-87
2022/07/29 12:07:14;;;;;;;2.53;1.77;;;30.10;66.90;;;;;;5038047;28;20450;-86
2022/07/29 12:09:40;;;;;;;2.33;2.13;;;30.20;65.50;;;;;;5051295;28;20486;-87
2022/07/29 12:12:06;;;;;;;4.80;1.97;;;30.30;65.20;;;;;;5050942;28;20618;-87
2022/07/29 12:14:33;;;;;;;3.30;1.90;;;30.40;66.20;;;;;;5052458;28;20409;-86
2022/07/29 12:17:00;;;;;;;2.50;1.83;;;30.50;65.20;;;;;;5051610;28;20410;-84
2022/07/29 12:19:26;;;;;;;2.23;1.57;;;30.60;65.50;;;;;;5051062;28;20435;-85
2022/07/29 12:21:54;;;;;;;3.10;2.10;;;30.70;65.30;;;;;;5052343;28;20429;-85
2022/07/29 12:24:21;;;;;;;2.80;1.87;;;30.80;65.10;;;;;;5052199;28;20415;-86
2022/07/29 12:26:58;;;;;;;1.40;1.30;;;31.00;63.20;;;;;;5053088;28;20422;-87
2022/07/29 12:29:26;;;;;;;1.73;1.63;;;31.20;62.80;;;;;;5051006;28;20556;-86
2022/07/29 12:31:53;;;;;;;2.30;2.10;;;31.40;63.00;;;;;;5053199;28;20958;-86
2022/07/29 12:34:23;;;;;;;1.53;1.47;;;31.50;63.70;;;;;;5059904;28;20829;-85
2022/07/29 12:36:49;;;;;;;1.43;1.33;;;31.60;65.30;;;;;;5050441;28;20819;-86
2022/07/29 12:39:17;;;;;;;2.37;1.33;;;31.70;64.40;;;;;;5049722;28;20442;-84
2022/07/29 12:41:43;;;;;;;2.07;1.93;;;31.80;63.20;;;;;;5050785;28;20458;-85
2022/07/29 12:44:09;;;;;;;22.93;2.00;;;31.70;63.00;;;;;;5051633;28;20414;-86
2022/07/29 12:46:35;;;;;;;2.60;2.40;;;31.70;64.30;;;;;;5052214;28;20415;-85
2022/07/29 12:49:00;;;;;;;1.83;1.73;;;31.60;63.80;;;;;;5050826;28;21217;-86
2022/07/29 12:51:34;;;;;;;2.17;2.00;;;31.50;63.50;;;;;;5051202;28;20176;-86
2022/07/29 12:54:52;;;;;;;1.60;1.50;;;31.40;64.70;;;;;;5048075;22;20271;-88
2022/07/29 12:58:01;;;;;;;2.03;1.60;;;31.40;64.50;;;;;;5028321;28;20691;-87
2022/07/29 13:01:41;;;;;;;1.50;1.40;;;31.40;65.10;;;;;;5029820;28;20524;-88
2022/07/29 13:04:42;;;;;;;2.07;1.70;;;31.40;65.00;;;;;;4972832;28;20445;-87
2022/07/29 13:07:35;;;;;;;7.30;2.77;;;31.40;65.10;;;;;;4917746;29;20428;-87
2022/07/29 13:13:52;;;;;;;2.23;2.03;;;31.10;65.50;;;;;;4937361;28;20449;-86